createdAt,value
2018-11-28T00:01:40.585Z,15.73
2018-11-28T00:07:30.994Z,14.90
2018-11-28T00:10:02.942Z,13.60
2018-11-28T00:12:35.925Z,15.63
2018-11-28T00:15:13.203Z,16.47
2018-11-28T00:17:49.937Z,15.53
2018-11-28T00:20:24.373Z,13.43
2018-11-28T00:22:59.393Z,14.53
2018-11-28T00:28:05.672Z,14.60
2018-11-28T00:30:42.565Z,14.43
2018-11-28T00:33:15.914Z,16.17
2018-11-28T00:35:50.877Z,16.23
2018-11-28T00:41:06.202Z,16.80
2018-11-28T00:43:41.587Z,16.97
2018-11-28T00:46:15.104Z,17.53
2018-11-28T00:48:50.072Z,15.80
2018-11-28T00:51:23.049Z,14.87
2018-11-28T00:53:56.138Z,15.40
2018-11-28T00:56:30.729Z,14.67
2018-11-28T00:59:08.725Z,14.70
2018-11-28T01:01:44.782Z,13.57
2018-11-28T01:04:17.809Z,17.03
2018-11-28T01:06:56.721Z,15.10
2018-11-28T01:09:28.814Z,14.83
2018-11-28T01:12:02.717Z,15.27
2018-11-28T01:14:35.664Z,16.37
2018-11-28T01:20:07.586Z,15.93
2018-11-28T01:22:40.973Z,14.93
2018-11-28T01:25:18.558Z,14.90
2018-11-28T01:27:52.610Z,15.10
2018-11-28T01:30:22.700Z,16.53
2018-11-28T01:32:54.665Z,17.07
2018-11-28T01:35:31.875Z,16.13
2018-11-28T01:38:01.019Z,14.37
2018-11-28T01:40:33.764Z,15.50
2018-11-28T01:43:05.353Z,15.10
2018-11-28T01:45:36.393Z,17.13
2018-11-28T01:51:14.129Z,15.53
2018-11-28T01:56:18.142Z,15.37
2018-11-28T01:58:50.793Z,13.10
2018-11-28T02:01:22.313Z,15.00
2018-11-28T02:03:59.344Z,15.40
2018-11-28T02:06:34.026Z,14.63
2018-11-28T02:09:04.741Z,15.93
2018-11-28T02:11:39.267Z,14.90
2018-11-28T02:16:43.918Z,14.40
2018-11-28T02:19:20.774Z,16.13
2018-11-28T02:21:54.290Z,15.93
2018-11-28T02:24:26.856Z,17.93
2018-11-28T02:26:59.311Z,15.40
2018-11-28T02:29:38.490Z,15.90
2018-11-28T02:32:09.633Z,16.17
2018-11-28T02:34:41.729Z,15.40
2018-11-28T02:37:15.183Z,15.83
2018-11-28T02:39:48.461Z,17.47
2018-11-28T02:42:27.174Z,16.83
2018-11-28T02:45:01.428Z,16.40
2018-11-28T02:47:34.509Z,18.20
2018-11-28T02:50:10.528Z,17.47
2018-11-28T02:52:41.765Z,16.50
2018-11-28T02:55:17.144Z,19.43
2018-11-28T02:57:50.241Z,16.37
2018-11-28T03:00:26.541Z,17.83
2018-11-28T03:02:56.529Z,17.33
2018-11-28T03:05:29.397Z,16.90
2018-11-28T03:07:59.375Z,19.23
2018-11-28T03:10:32.732Z,16.37
2018-11-28T03:18:38.821Z,17.63
2018-11-28T03:21:21.618Z,17.97
2018-11-28T03:23:53.942Z,18.00
2018-11-28T03:26:22.846Z,17.37
2018-11-28T03:28:56.350Z,19.37
2018-11-28T03:31:38.001Z,17.53
2018-11-28T03:36:49.751Z,18.27
2018-11-28T03:39:22.799Z,20.07
2018-11-28T03:42:00.498Z,17.33
2018-11-28T03:44:30.327Z,17.03
2018-11-28T03:47:03.658Z,16.83
2018-11-28T03:49:39.743Z,18.57
2018-11-28T03:52:12.442Z,15.97
2018-11-28T03:54:47.430Z,17.33
2018-11-28T03:57:18.555Z,18.73
2018-11-28T03:59:54.146Z,18.17
2018-11-28T04:02:24.579Z,18.17
2018-11-28T04:05:00.262Z,16.90
2018-11-28T04:07:34.626Z,17.90
2018-11-28T04:10:05.615Z,18.20
2018-11-28T04:12:41.111Z,19.67
2018-11-28T04:17:49.513Z,18.50
2018-11-28T04:20:18.840Z,18.57
2018-11-28T04:22:52.958Z,18.93
2018-11-28T04:25:29.391Z,21.13
2018-11-28T04:28:10.332Z,19.20
2018-11-28T04:30:43.048Z,17.30
2018-11-28T04:33:20.850Z,17.60
2018-11-28T04:38:30.653Z,15.87
2018-11-28T04:41:03.661Z,18.37
2018-11-28T04:43:36.578Z,15.97
2018-11-28T04:46:13.053Z,18.23
2018-11-28T04:48:44.010Z,17.17
2018-11-28T04:54:02.125Z,17.57
2018-11-28T04:56:32.697Z,16.80
2018-11-28T04:59:06.769Z,17.33
2018-11-28T05:01:38.588Z,17.27
2018-11-28T05:04:12.049Z,17.13
2018-11-28T05:12:11.946Z,18.77
2018-11-28T05:14:43.028Z,19.67
2018-11-28T05:17:19.004Z,17.77
2018-11-28T05:19:50.170Z,17.37
2018-11-28T05:22:41.558Z,17.13
2018-11-28T05:25:21.874Z,17.27
2018-11-28T05:27:54.937Z,18.80
2018-11-28T05:30:32.145Z,18.20
2018-11-28T05:33:07.162Z,18.73
2018-11-28T05:35:40.243Z,18.07
2018-11-28T05:38:16.788Z,17.40
2018-11-28T05:40:50.305Z,16.87
2018-11-28T05:43:23.405Z,16.67
2018-11-28T05:48:32.627Z,17.70
2018-11-28T05:51:06.394Z,17.53
2018-11-28T05:53:42.450Z,16.73
2018-11-28T05:56:12.803Z,20.33
2018-11-28T05:58:48.225Z,18.93
2018-11-28T06:01:17.770Z,20.50
2018-11-28T06:03:51.629Z,19.73
2018-11-28T06:06:23.574Z,17.40
2018-11-28T06:08:57.178Z,18.40
2018-11-28T06:11:26.630Z,18.77
2018-11-28T06:14:03.152Z,21.27
2018-11-28T06:16:38.685Z,19.60
2018-11-28T06:19:13.453Z,22.40
2018-11-28T06:21:46.747Z,18.13
2018-11-28T06:26:54.662Z,19.37
2018-11-28T06:29:28.157Z,26.97
2018-11-28T06:32:03.780Z,20.40
2018-11-28T06:37:18.385Z,20.17
2018-11-28T06:39:51.125Z,16.80
2018-11-28T06:42:27.100Z,19.70
2018-11-28T06:44:59.098Z,19.67
2018-11-28T06:47:36.688Z,24.93
2018-11-28T06:50:06.181Z,21.63
2018-11-28T06:52:42.001Z,19.20
2018-11-28T06:55:13.529Z,17.60
2018-11-28T06:57:48.488Z,19.13
2018-11-28T07:00:17.146Z,20.00
2018-11-28T07:02:50.497Z,18.90
2018-11-28T07:05:25.807Z,18.47
2018-11-28T07:10:36.583Z,18.70
2018-11-28T07:13:08.714Z,20.97
2018-11-28T07:15:45.736Z,19.23
2018-11-28T07:18:15.105Z,19.07
2018-11-28T07:20:56.624Z,19.83
2018-11-28T07:26:16.214Z,16.60
2018-11-28T07:28:48.418Z,19.50
2018-11-28T07:31:21.452Z,17.20
2018-11-28T07:34:00.754Z,17.00
2018-11-28T07:36:36.596Z,16.57
2018-11-28T07:39:08.085Z,20.07
2018-11-28T07:41:55.794Z,21.73
2018-11-28T07:44:29.648Z,22.23
2018-11-28T07:47:02.773Z,21.43
2018-11-28T07:49:41.061Z,18.23
2018-11-28T07:54:56.630Z,20.13
2018-11-28T07:57:29.759Z,22.70
2018-11-28T08:00:05.073Z,23.50
2018-11-28T08:02:38.378Z,22.10
2018-11-28T08:05:14.542Z,23.03
2018-11-28T08:07:49.113Z,22.33
2018-11-28T08:10:26.531Z,22.50
2018-11-28T08:13:02.228Z,22.30
2018-11-28T08:15:31.339Z,20.90
2018-11-28T08:18:01.946Z,19.40
2018-11-28T08:20:38.514Z,22.10
2018-11-28T08:25:47.229Z,19.93
2018-11-28T08:28:17.025Z,22.83
2018-11-28T08:30:54.270Z,20.93
2018-11-28T08:33:23.849Z,18.13
2018-11-28T08:36:00.873Z,20.63
2018-11-28T08:38:32.418Z,22.50
2018-11-28T08:41:14.346Z,22.87
2018-11-28T08:43:45.874Z,20.07
2018-11-28T08:46:19.396Z,22.73
2018-11-28T08:51:38.780Z,22.03
2018-11-28T08:54:12.838Z,22.03
2018-11-28T08:56:46.357Z,22.73
2018-11-28T09:02:00.402Z,22.20
2018-11-28T09:04:30.502Z,23.53
2018-11-28T09:07:08.200Z,22.67
2018-11-28T09:12:30.112Z,21.60
2018-11-28T09:15:02.653Z,27.20
2018-11-28T09:17:38.919Z,22.30
2018-11-28T09:20:10.973Z,25.50
2018-11-28T09:25:44.165Z,20.53
2018-11-28T09:28:17.126Z,19.37
2018-11-28T09:30:48.559Z,21.80
2018-11-28T09:33:24.233Z,20.73
2018-11-28T09:35:56.854Z,24.70
2018-11-28T09:38:30.280Z,20.97
2018-11-28T09:41:01.397Z,23.03
2018-11-28T09:43:35.661Z,19.97
2018-11-28T09:46:10.219Z,21.97
2018-11-28T09:48:43.431Z,20.30
2018-11-28T09:51:20.954Z,20.97
2018-11-28T09:56:27.937Z,20.73
2018-11-28T09:58:59.653Z,22.43
2018-11-28T10:01:37.089Z,20.03
2018-11-28T10:06:51.981Z,22.33
2018-11-28T10:12:14.200Z,20.20
2018-11-28T10:14:47.106Z,20.83
2018-11-28T10:17:22.835Z,20.60
2018-11-28T10:22:38.285Z,21.37
2018-11-28T10:25:09.377Z,18.43
2018-11-28T10:27:45.161Z,19.93
2018-11-28T10:30:13.700Z,20.10
2018-11-28T10:32:46.840Z,19.20
2018-11-28T10:35:28.434Z,20.33
2018-11-28T10:38:02.129Z,20.73
2018-11-28T10:40:37.575Z,21.13
2018-11-28T10:43:12.026Z,18.17
2018-11-28T10:48:29.661Z,21.07
2018-11-28T10:53:43.510Z,21.97
2018-11-28T10:56:18.213Z,22.63
2018-11-28T10:58:50.466Z,19.70
2018-11-28T11:01:20.600Z,21.60
2018-11-28T11:04:17.778Z,19.20
2018-11-28T11:07:04.587Z,19.83
2018-11-28T11:09:54.572Z,20.17
2018-11-28T11:12:44.824Z,20.77
2018-11-28T11:15:20.090Z,20.20
2018-11-28T11:17:54.351Z,20.00
2018-11-28T11:20:25.247Z,19.97
2018-11-28T11:25:34.097Z,19.53
2018-11-28T11:28:07.527Z,17.30
2018-11-28T11:30:41.237Z,21.37
2018-11-28T11:38:35.667Z,19.20
2018-11-28T11:41:08.509Z,16.20
2018-11-28T11:43:44.202Z,19.10
2018-11-28T11:48:53.754Z,17.93
2018-11-28T11:54:17.134Z,14.80
2018-11-28T11:59:27.378Z,14.70
2018-11-28T12:02:03.186Z,16.77
2018-11-28T12:04:37.852Z,15.20
2018-11-28T12:07:08.536Z,15.57
2018-11-28T12:09:44.132Z,15.23
2018-11-28T12:14:54.207Z,16.43
2018-11-28T12:17:39.310Z,15.00
2018-11-28T12:20:21.741Z,15.83
2018-11-28T12:22:53.539Z,16.47
2018-11-28T12:25:27.513Z,14.97
2018-11-28T12:28:04.853Z,15.20
2018-11-28T12:30:33.697Z,13.03
2018-11-28T12:33:06.852Z,15.63
2018-11-28T12:35:39.876Z,19.70
2018-11-28T12:38:10.950Z,15.63
2018-11-28T12:40:43.798Z,20.87
2018-11-28T12:45:52.950Z,16.27
2018-11-28T12:48:23.344Z,17.00
2018-11-28T12:50:56.565Z,16.13
2018-11-28T12:53:27.195Z,16.50
2018-11-28T12:56:08.814Z,21.50
2018-11-28T13:01:24.821Z,14.87
2018-11-28T13:04:03.094Z,14.77
2018-11-28T13:06:33.173Z,15.37
2018-11-28T13:09:03.141Z,16.40
2018-11-28T13:11:44.617Z,18.50
2018-11-28T13:14:16.146Z,20.40
2018-11-28T13:16:58.548Z,22.73
2018-11-28T13:19:27.096Z,16.07
2018-11-28T13:22:03.961Z,18.73
2018-11-28T13:24:33.634Z,18.23
2018-11-28T13:27:07.907Z,17.60
2018-11-28T13:29:45.923Z,16.03
2018-11-28T13:32:22.224Z,16.40
2018-11-28T13:34:55.625Z,18.53
2018-11-28T13:37:36.078Z,16.93
2018-11-28T13:42:46.831Z,17.93
2018-11-28T13:45:21.327Z,17.27
2018-11-28T13:47:58.048Z,17.90
2018-11-28T13:50:32.838Z,15.93
2018-11-28T13:53:07.152Z,19.67
2018-11-28T13:55:42.917Z,17.60
2018-11-28T13:58:15.761Z,16.43
2018-11-28T14:00:51.635Z,16.97
2018-11-28T14:03:24.759Z,17.67
2018-11-28T14:05:57.513Z,18.17
2018-11-28T14:08:32.166Z,17.67
2018-11-28T14:11:02.948Z,18.43
2018-11-28T14:13:38.005Z,19.20
2018-11-28T14:16:07.910Z,17.87
2018-11-28T14:18:42.500Z,17.93
2018-11-28T14:21:20.504Z,18.97
2018-11-28T14:23:58.102Z,17.33
2018-11-28T14:26:32.138Z,19.73
2018-11-28T14:29:02.335Z,17.50
2018-11-28T14:31:41.265Z,20.30
2018-11-28T14:34:12.670Z,18.67
2018-11-28T14:36:46.434Z,17.83
2018-11-28T14:39:19.411Z,22.67
2018-11-28T14:41:52.109Z,22.27
2018-11-28T14:47:28.746Z,17.50
2018-11-28T14:50:04.814Z,19.90
2018-11-28T14:52:36.553Z,20.43
2018-11-28T14:55:18.666Z,21.77
2018-11-28T14:57:55.374Z,22.40
2018-11-28T15:00:32.213Z,20.70
2018-11-28T15:03:03.642Z,20.07
2018-11-28T15:05:46.422Z,22.20
2018-11-28T15:08:23.895Z,18.73
2018-11-28T15:10:54.961Z,22.40
2018-11-28T15:16:23.086Z,18.93
2018-11-28T15:18:56.342Z,20.80
2018-11-28T15:21:35.922Z,18.60
2018-11-28T15:24:09.481Z,18.90
2018-11-28T15:26:44.460Z,19.50
2018-11-28T15:29:15.566Z,20.23
2018-11-28T15:31:51.001Z,18.97
2018-11-28T15:34:20.629Z,18.80
2018-11-28T15:36:55.386Z,20.40
2018-11-28T15:44:33.395Z,19.30
2018-11-28T15:47:10.977Z,20.83
2018-11-28T15:52:20.821Z,19.77
2018-11-28T15:54:53.597Z,18.43
2018-11-28T15:57:22.917Z,19.47
2018-11-28T15:59:58.534Z,19.60
2018-11-28T16:05:10.826Z,19.57
2018-11-28T16:07:42.105Z,26.23
2018-11-28T16:10:38.577Z,23.23
2018-11-28T16:15:41.636Z,22.30
2018-11-28T16:18:14.985Z,23.50
2018-11-28T16:20:52.365Z,24.03
2018-11-28T16:23:23.650Z,22.83
2018-11-28T16:25:53.541Z,19.90
2018-11-28T16:28:29.637Z,18.73
2018-11-28T16:31:04.518Z,20.10
2018-11-28T16:33:55.171Z,19.50
2018-11-28T16:36:35.062Z,21.10
2018-11-28T16:39:21.207Z,22.90
2018-11-28T16:41:59.941Z,22.67
2018-11-28T16:44:33.771Z,20.93
2018-11-28T16:47:03.326Z,19.80
2018-11-28T16:49:35.953Z,21.60
2018-11-28T16:52:08.021Z,21.10
2018-11-28T16:54:41.584Z,22.57
2018-11-28T16:57:13.505Z,20.60
2018-11-28T16:59:47.543Z,19.43
2018-11-28T17:02:22.005Z,21.23
2018-11-28T17:04:58.037Z,20.63
2018-11-28T17:07:30.501Z,17.93
2018-11-28T17:09:59.547Z,19.83
2018-11-28T17:12:29.513Z,20.07
2018-11-28T17:15:08.786Z,19.87
2018-11-28T17:17:39.671Z,18.27
2018-11-28T17:20:16.862Z,19.80
2018-11-28T17:22:48.125Z,21.97
2018-11-28T17:28:04.486Z,22.17
2018-11-28T17:30:47.500Z,20.97
2018-11-28T17:33:32.886Z,20.93
2018-11-28T17:36:08.735Z,23.03
2018-11-28T17:38:39.454Z,22.13
2018-11-28T17:41:21.787Z,25.70
2018-11-28T17:44:02.974Z,22.47
2018-11-28T17:46:35.197Z,19.67
2018-11-28T17:49:13.737Z,19.40
2018-11-28T17:54:22.126Z,23.33
2018-11-28T17:56:55.188Z,24.70
2018-11-28T17:59:31.118Z,22.10
2018-11-28T18:02:03.780Z,21.33
2018-11-28T18:04:45.517Z,23.37
2018-11-28T18:07:17.341Z,28.77
2018-11-28T18:09:50.022Z,22.70
2018-11-28T18:12:19.594Z,27.87
2018-11-28T18:14:57.569Z,25.27
2018-11-28T18:17:26.495Z,26.07
2018-11-28T18:20:00.161Z,23.60
2018-11-28T18:22:37.390Z,23.33
2018-11-28T18:27:47.033Z,24.03
2018-11-28T18:30:16.535Z,23.37
2018-11-28T18:32:48.851Z,28.43
2018-11-28T18:37:55.309Z,20.07
2018-11-28T18:40:28.252Z,25.77
2018-11-28T18:43:01.413Z,23.50
2018-11-28T18:45:32.484Z,27.53
2018-11-28T18:48:07.771Z,26.00
2018-11-28T18:50:37.007Z,32.00
2018-11-28T18:53:10.275Z,21.77
2018-11-28T18:55:45.229Z,23.73
2018-11-28T18:58:24.305Z,22.83
2018-11-28T19:00:58.749Z,23.83
2018-11-28T19:03:33.219Z,23.23
2018-11-28T19:06:07.734Z,25.70
2018-11-28T19:08:46.135Z,24.97
2018-11-28T19:11:17.378Z,23.80
2018-11-28T19:13:54.416Z,21.90
2018-11-28T19:16:23.838Z,23.23
2018-11-28T19:19:06.466Z,24.50
2018-11-28T19:21:41.550Z,24.87
2018-11-28T19:24:13.116Z,24.97
2018-11-28T19:26:42.661Z,24.73
2018-11-28T19:29:22.118Z,22.77
2018-11-28T19:34:29.422Z,23.10
2018-11-28T19:39:46.334Z,21.80
2018-11-28T19:44:57.554Z,22.47
2018-11-28T19:47:30.413Z,23.57
2018-11-28T19:50:08.200Z,23.23
2018-11-28T19:52:39.585Z,22.83
2018-11-28T19:55:10.585Z,23.67
2018-11-28T19:57:45.858Z,23.20
2018-11-28T20:00:18.183Z,25.17
2018-11-28T20:02:53.723Z,23.80
2018-11-28T20:05:26.891Z,21.80
2018-11-28T20:08:04.528Z,24.97
2018-11-28T20:10:34.637Z,24.73
2018-11-28T20:13:10.850Z,21.50
2018-11-28T20:15:39.238Z,24.57
2018-11-28T20:18:14.229Z,24.93
2018-11-28T20:20:45.837Z,23.17
2018-11-28T20:23:21.674Z,23.13
2018-11-28T20:25:51.815Z,23.47
2018-11-28T20:28:28.059Z,23.10
2018-11-28T20:36:37.346Z,27.37
2018-11-28T20:39:10.365Z,27.13
2018-11-28T20:41:51.453Z,26.13
2018-11-28T20:44:22.963Z,24.83
2018-11-28T20:47:05.685Z,26.07
2018-11-28T20:49:43.125Z,25.80
2018-11-28T20:52:14.045Z,30.77
2018-11-28T20:54:45.819Z,24.47
2018-11-28T20:57:17.899Z,24.37
2018-11-28T21:02:35.709Z,26.00
2018-11-28T21:05:17.842Z,27.10
2018-11-28T21:07:48.457Z,27.97
2018-11-28T21:10:40.237Z,27.13
2018-11-28T21:13:10.197Z,28.70
2018-11-28T21:15:47.358Z,27.53
2018-11-28T21:18:20.569Z,26.00
2018-11-28T21:20:55.394Z,31.47
2018-11-28T21:23:28.690Z,26.53
2018-11-28T21:26:00.579Z,29.60
2018-11-28T21:28:33.310Z,28.73
2018-11-28T21:31:05.236Z,26.47
2018-11-28T21:33:41.489Z,28.83
2018-11-28T21:36:12.805Z,27.57
2018-11-28T21:38:45.034Z,28.30
2018-11-28T21:43:54.728Z,30.80
2018-11-28T21:46:25.158Z,27.20
2018-11-28T21:48:58.773Z,26.97
2018-11-28T21:51:30.709Z,28.20
2018-11-28T21:54:06.664Z,30.17
2018-11-28T21:59:20.844Z,31.97
2018-11-28T22:01:56.741Z,27.87
2018-11-28T22:07:15.458Z,35.07
2018-11-28T22:09:46.270Z,26.27
2018-11-28T22:12:23.553Z,34.07
2018-11-28T22:14:55.618Z,36.43
2018-11-28T22:17:27.426Z,29.80
2018-11-28T22:20:03.517Z,30.70
2018-11-28T22:25:26.605Z,28.80
2018-11-28T22:28:00.105Z,29.80
2018-11-28T22:30:31.654Z,30.90
2018-11-28T22:33:04.920Z,32.37
2018-11-28T22:35:42.117Z,29.83
2018-11-28T22:38:16.279Z,30.13
2018-11-28T22:40:47.641Z,30.77
2018-11-28T22:43:20.626Z,29.57
2018-11-28T22:45:50.056Z,33.77
2018-11-28T22:48:21.921Z,28.43
2018-11-28T22:50:55.382Z,28.97
2018-11-28T22:56:02.698Z,29.43
2018-11-28T22:58:37.877Z,31.40
2018-11-28T23:01:14.153Z,30.97
2018-11-28T23:06:23.530Z,26.40
2018-11-28T23:11:46.148Z,28.40
2018-11-28T23:17:02.058Z,29.10
2018-11-28T23:19:36.965Z,27.07
2018-11-28T23:22:11.393Z,30.70
2018-11-28T23:24:45.939Z,27.67
2018-11-28T23:27:20.641Z,27.83
2018-11-28T23:30:02.453Z,28.07
2018-11-28T23:32:38.760Z,28.70
2018-11-28T23:35:08.741Z,30.77
2018-11-28T23:37:41.543Z,30.53
2018-11-28T23:40:24.016Z,32.17
2018-11-28T23:42:54.598Z,29.23
2018-11-28T23:45:36.734Z,31.60
2018-11-28T23:48:13.998Z,29.23
2018-11-28T23:50:45.125Z,31.13
2018-11-28T23:53:18.229Z,32.57
2018-11-28T23:55:55.161Z,28.57
2018-11-28T23:58:29.795Z,29.17
